createdAt,value
2022-08-12T00:01:03.744Z,97501.00
2022-08-12T00:03:51.947Z,97493.00
2022-08-12T00:06:41.001Z,97492.00
2022-08-12T00:09:26.869Z,97490.00
2022-08-12T00:12:13.093Z,97489.00
2022-08-12T00:14:59.500Z,97487.00
2022-08-12T00:17:45.389Z,97485.00
2022-08-12T00:20:31.165Z,97488.00
2022-08-12T00:23:17.283Z,97490.00
2022-08-12T00:26:21.829Z,97484.00
2022-08-12T00:29:13.437Z,97488.00
2022-08-12T00:32:01.019Z,97496.00
2022-08-12T00:34:49.451Z,97494.00
2022-08-12T00:37:37.711Z,97486.00
2022-08-12T00:40:26.557Z,97493.00
2022-08-12T00:42:53.909Z,97495.00
2022-08-12T00:45:21.270Z,97486.00
2022-08-12T00:47:52.162Z,97484.00
2022-08-12T00:50:21.633Z,97480.00
2022-08-12T00:52:51.997Z,97480.00
2022-08-12T00:55:21.162Z,97471.00
2022-08-12T00:57:51.893Z,97483.00
2022-08-12T01:00:24.883Z,97476.00
2022-08-12T01:02:57.497Z,97477.00
2022-08-12T01:05:45.054Z,97475.00
2022-08-12T01:08:30.870Z,97477.00
2022-08-12T01:11:16.934Z,97470.00
2022-08-12T01:13:50.169Z,97471.00
2022-08-12T01:16:22.434Z,97467.00
2022-08-12T01:18:52.361Z,97472.00
2022-08-12T01:21:27.749Z,97461.00
2022-08-12T01:24:30.616Z,97464.00
2022-08-12T01:26:59.757Z,97460.00
2022-08-12T01:29:35.057Z,97457.00
2022-08-12T01:32:08.878Z,97453.00
2022-08-12T01:34:38.683Z,97449.00
2022-08-12T01:37:09.197Z,97441.00
2022-08-12T01:40:31.518Z,97434.00
2022-08-12T01:42:51.997Z,97451.00
2022-08-12T01:45:24.338Z,97443.00
2022-08-12T01:48:09.709Z,97442.00
2022-08-12T01:51:06.233Z,97443.00
2022-08-12T01:54:04.414Z,97439.00
2022-08-12T01:56:43.792Z,97439.00
2022-08-12T01:59:34.283Z,97430.00
2022-08-12T02:02:05.041Z,97431.00
2022-08-12T02:05:17.829Z,97435.00
2022-08-12T02:08:29.069Z,97421.00
2022-08-12T02:11:18.460Z,97428.00
2022-08-12T02:14:00.663Z,97426.00
2022-08-12T02:17:05.411Z,97426.00
2022-08-12T02:20:12.197Z,97426.00
2022-08-12T02:22:44.140Z,97426.00
2022-08-12T02:25:39.157Z,97422.00
2022-08-12T02:28:08.237Z,97416.00
2022-08-12T02:30:41.950Z,97419.00
2022-08-12T02:33:10.798Z,97415.00
2022-08-12T02:35:39.785Z,97416.00
2022-08-12T02:38:12.492Z,97418.00
2022-08-12T02:40:43.185Z,97419.00
2022-08-12T02:43:41.498Z,97422.00
2022-08-12T02:46:16.418Z,97415.00
2022-08-12T02:49:00.750Z,97420.00
2022-08-12T02:51:45.738Z,97413.00
2022-08-12T02:54:13.584Z,97406.00
2022-08-12T02:56:42.186Z,97413.00
2022-08-12T02:59:20.390Z,97406.00
2022-08-12T03:02:03.653Z,97396.00
2022-08-12T03:04:44.109Z,97403.00
2022-08-12T03:07:54.335Z,97401.00
2022-08-12T03:10:34.687Z,97397.00
2022-08-12T03:13:07.491Z,97408.00
2022-08-12T03:15:36.381Z,97401.00
2022-08-12T03:18:23.508Z,97407.00
2022-08-12T03:20:54.336Z,97411.00
2022-08-12T03:23:30.245Z,97402.00
2022-08-12T03:26:02.467Z,97401.00
2022-08-12T03:28:50.948Z,97407.00
2022-08-12T03:31:28.279Z,97410.00
2022-08-12T03:34:03.083Z,97411.00
2022-08-12T03:36:36.945Z,97402.00
2022-08-12T03:39:18.252Z,97403.00
2022-08-12T03:42:06.328Z,97416.00
2022-08-12T03:45:19.964Z,97414.00
2022-08-12T03:48:20.225Z,97405.00
2022-08-12T03:51:07.035Z,97402.00
2022-08-12T03:53:53.692Z,97408.00
2022-08-12T03:56:39.471Z,97402.00
2022-08-12T03:59:26.242Z,97404.00
2022-08-12T04:01:57.402Z,97408.00
2022-08-12T04:04:35.817Z,97404.00
2022-08-12T04:07:09.578Z,97408.00
2022-08-12T04:09:43.019Z,97411.00
2022-08-12T04:12:32.628Z,97405.00
2022-08-12T04:15:01.558Z,97403.00
2022-08-12T04:17:28.836Z,97405.00
2022-08-12T04:19:59.462Z,97422.00
2022-08-12T04:22:30.410Z,97413.00
2022-08-12T04:25:02.427Z,97430.00
2022-08-12T04:27:31.884Z,97422.00
2022-08-12T04:30:29.620Z,97426.00
2022-08-12T04:32:50.656Z,97426.00
2022-08-12T04:35:18.230Z,97418.00
2022-08-12T04:37:59.528Z,97427.00
2022-08-12T04:40:30.801Z,97437.00
2022-08-12T04:43:01.026Z,97438.00
2022-08-12T04:45:28.363Z,97438.00
2022-08-12T04:47:55.321Z,97442.00
2022-08-12T04:50:34.686Z,97437.00
2022-08-12T04:53:06.292Z,97448.00
2022-08-12T04:55:34.752Z,97450.00
2022-08-12T04:58:01.777Z,97451.00
2022-08-12T05:00:30.074Z,97464.00
2022-08-12T05:02:57.030Z,97459.00
2022-08-12T05:05:24.854Z,97462.00
2022-08-12T05:07:54.430Z,97467.00
2022-08-12T05:10:33.471Z,97474.00
2022-08-12T05:13:08.197Z,97473.00
2022-08-12T05:16:02.522Z,97474.00
2022-08-12T05:18:25.972Z,97483.00
2022-08-12T05:20:56.719Z,97475.00
2022-08-12T05:23:23.603Z,97473.00
2022-08-12T05:25:57.279Z,97473.00
2022-08-12T05:28:27.367Z,97475.00
2022-08-12T05:30:55.747Z,97482.00
2022-08-12T05:33:26.559Z,97481.00
2022-08-12T05:35:53.541Z,97480.00
2022-08-12T05:38:38.708Z,97482.00
2022-08-12T05:41:18.950Z,97483.00
2022-08-12T05:43:52.528Z,97486.00
2022-08-12T05:46:25.035Z,97484.00
2022-08-12T05:48:56.366Z,97485.00
2022-08-12T05:51:38.582Z,97481.00
2022-08-12T05:54:09.541Z,97482.00
2022-08-12T05:56:37.015Z,97463.00
2022-08-12T05:59:08.623Z,97480.00
2022-08-12T06:02:10.787Z,97467.00
2022-08-12T06:04:22.989Z,97480.00
2022-08-12T06:06:53.139Z,97484.00
2022-08-12T06:09:20.093Z,97477.00
2022-08-12T06:12:04.455Z,97485.00
2022-08-12T06:14:36.743Z,97485.00
2022-08-12T06:17:05.592Z,97484.00
2022-08-12T06:20:28.344Z,97483.00
2022-08-12T06:22:19.650Z,97489.00
2022-08-12T06:24:48.364Z,97495.00
2022-08-12T06:27:17.613Z,97490.00
2022-08-12T06:30:08.935Z,97491.00
2022-08-12T06:32:31.498Z,97482.00
2022-08-12T06:35:26.573Z,97478.00
2022-08-12T06:37:56.421Z,97468.00
2022-08-12T06:40:43.293Z,97472.00
2022-08-12T06:43:10.105Z,97482.00
2022-08-12T06:45:45.502Z,97478.00
2022-08-12T06:48:13.796Z,97480.00
2022-08-12T06:50:42.193Z,97472.00
2022-08-12T06:53:09.374Z,97481.00
2022-08-12T06:55:37.064Z,97479.00
2022-08-12T06:58:10.347Z,97469.00
2022-08-12T07:04:39.231Z,97465.00
2022-08-12T07:07:08.843Z,97461.00
2022-08-12T07:10:01.543Z,97456.00
2022-08-12T07:12:36.538Z,97455.00
2022-08-12T07:15:04.279Z,97454.00
2022-08-12T07:17:37.616Z,97467.00
2022-08-12T07:20:20.146Z,97469.00
2022-08-12T07:23:04.151Z,97467.00
2022-08-12T07:25:37.567Z,97469.00
2022-08-12T07:28:23.558Z,97464.00
2022-08-12T07:30:52.731Z,97467.00
2022-08-12T07:33:23.573Z,97470.00
2022-08-12T07:35:54.409Z,97467.00
2022-08-12T07:38:33.426Z,97464.00
2022-08-12T07:41:06.061Z,97467.00
2022-08-12T07:43:40.541Z,97465.00
2022-08-12T07:46:11.705Z,97473.00
2022-08-12T07:48:43.333Z,97468.00
2022-08-12T07:51:10.474Z,97468.00
2022-08-12T07:53:59.911Z,97464.00
2022-08-12T07:56:26.943Z,97465.00
2022-08-12T07:58:54.817Z,97461.00
2022-08-12T08:01:22.747Z,97460.00
2022-08-12T08:04:15.118Z,97462.00
2022-08-12T08:06:45.061Z,97461.00
2022-08-12T08:09:15.326Z,97463.00
2022-08-12T08:12:00.498Z,97462.00
2022-08-12T08:14:31.675Z,97468.00
2022-08-12T08:17:03.317Z,97467.00
2022-08-12T08:19:33.593Z,97465.00
2022-08-12T08:22:33.467Z,97465.00
2022-08-12T08:25:35.115Z,97464.00
2022-08-12T08:27:55.253Z,97476.00
2022-08-12T08:30:22.665Z,97471.00
2022-08-12T08:32:49.809Z,97477.00
2022-08-12T08:35:16.765Z,97476.00
2022-08-12T08:37:46.184Z,97480.00
2022-08-12T08:40:34.014Z,97471.00
2022-08-12T08:43:01.409Z,97476.00
2022-08-12T08:45:28.412Z,97467.00
2022-08-12T08:47:58.415Z,97471.00
2022-08-12T08:50:27.543Z,97465.00
2022-08-12T08:52:54.445Z,97467.00
2022-08-12T08:55:30.054Z,97478.00
2022-08-12T08:58:04.323Z,97475.00
2022-08-12T09:00:31.194Z,97469.00
2022-08-12T09:02:59.143Z,97470.00
2022-08-12T09:05:28.176Z,97469.00
2022-08-12T09:08:22.504Z,97474.00
2022-08-12T09:10:59.857Z,97476.00
2022-08-12T09:14:11.271Z,97468.00
2022-08-12T09:16:20.794Z,97464.00
2022-08-12T09:18:52.469Z,97465.00
2022-08-12T09:21:23.200Z,97463.00
2022-08-12T09:24:00.369Z,97463.00
2022-08-12T09:30:10.663Z,97463.00
2022-08-12T09:32:11.602Z,97458.00
2022-08-12T09:34:56.848Z,97454.00
2022-08-12T09:37:26.541Z,97461.00
2022-08-12T09:40:01.469Z,97461.00
2022-08-12T09:43:16.003Z,97459.00
2022-08-12T09:46:06.999Z,97451.00
2022-08-12T09:48:35.093Z,97453.00
2022-08-12T09:51:17.060Z,97450.00
2022-08-12T09:54:08.310Z,97454.00
2022-08-12T09:57:02.283Z,97443.00
2022-08-12T10:00:14.952Z,97458.00
2022-08-12T10:02:42.036Z,97443.00
2022-08-12T10:05:09.389Z,97447.00
2022-08-12T10:07:40.989Z,97435.00
2022-08-12T10:10:23.952Z,97436.00
2022-08-12T10:13:34.644Z,97437.00
2022-08-12T10:16:05.001Z,97437.00
2022-08-12T10:18:35.334Z,97425.00
2022-08-12T10:21:10.266Z,97425.00
2022-08-12T10:23:40.255Z,97414.00
2022-08-12T10:29:02.905Z,97428.00
2022-08-12T10:31:46.991Z,97423.00
2022-08-12T19:07:22.105Z,97315.00
2022-08-12T19:09:59.250Z,97314.00
2022-08-12T19:12:55.467Z,97323.00
2022-08-12T19:15:27.017Z,97318.00
2022-08-12T19:18:00.989Z,97321.00
2022-08-12T19:20:31.447Z,97318.00
2022-08-12T19:23:02.342Z,97317.00
2022-08-12T19:26:00.283Z,97324.00
2022-08-12T19:28:30.175Z,97315.00
2022-08-12T19:31:45.291Z,97316.00
2022-08-12T19:38:02.805Z,97325.00
2022-08-12T19:40:31.861Z,97319.00
2022-08-12T19:43:19.827Z,97316.00
2022-08-12T19:45:56.619Z,97317.00
2022-08-12T19:48:30.497Z,97321.00
2022-08-12T19:51:09.197Z,97324.00
2022-08-12T19:53:57.514Z,97318.00
2022-08-12T19:56:27.424Z,97313.00
2022-08-12T19:59:18.702Z,97313.00
2022-08-12T20:02:03.353Z,97313.00
2022-08-12T20:04:39.293Z,97321.00
2022-08-12T20:07:23.886Z,97328.00
2022-08-12T20:09:53.798Z,97323.00
2022-08-12T20:12:30.960Z,97323.00
2022-08-12T20:15:05.096Z,97322.00
2022-08-12T20:17:36.466Z,97324.00
2022-08-12T20:20:21.244Z,97317.00
2022-08-12T20:22:55.779Z,97322.00
2022-08-12T20:25:51.776Z,97330.00
2022-08-12T20:28:09.587Z,97318.00
2022-08-12T20:30:59.290Z,97314.00
2022-08-12T20:33:50.399Z,97322.00
2022-08-12T20:36:41.031Z,97311.00
2022-08-12T20:39:01.012Z,97319.00
2022-08-12T20:41:30.182Z,97314.00
2022-08-12T20:43:59.385Z,97319.00
2022-08-12T20:46:31.589Z,97315.00
2022-08-12T20:49:17.223Z,97314.00
2022-08-12T20:51:54.885Z,97312.00
2022-08-12T20:54:32.333Z,97303.00
2022-08-12T20:57:02.098Z,97305.00
2022-08-12T20:59:41.886Z,97311.00
2022-08-12T21:02:32.600Z,97315.00
2022-08-12T21:05:20.318Z,97317.00
2022-08-12T21:07:51.625Z,97326.00
2022-08-12T21:10:20.731Z,97316.00
2022-08-12T21:12:49.013Z,97323.00
2022-08-12T21:15:23.807Z,97311.00
2022-08-12T21:18:11.528Z,97314.00
2022-08-12T21:20:55.341Z,97312.00
2022-08-12T21:23:23.237Z,97316.00
2022-08-12T21:26:01.063Z,97308.00
2022-08-12T21:28:31.195Z,97306.00
2022-08-12T21:32:35.306Z,97306.00
2022-08-12T21:34:08.251Z,97308.00
2022-08-12T21:36:43.101Z,97299.00
2022-08-12T21:39:27.832Z,97300.00
2022-08-12T21:42:06.756Z,97301.00
2022-08-12T21:45:44.579Z,97303.00
2022-08-12T21:47:24.583Z,97308.00
2022-08-12T21:50:02.905Z,97303.00
2022-08-12T21:52:40.717Z,97310.00
2022-08-12T21:55:19.677Z,97309.00
2022-08-12T21:57:54.352Z,97314.00
2022-08-12T22:00:34.254Z,97313.00
2022-08-12T22:04:01.292Z,97313.00
2022-08-12T22:06:26.044Z,97306.00
2022-08-12T22:09:02.225Z,97308.00
2022-08-12T22:11:42.280Z,97311.00
2022-08-12T22:14:21.584Z,97307.00
2022-08-12T22:16:53.108Z,97314.00
2022-08-12T22:19:21.434Z,97314.00
2022-08-12T22:21:53.258Z,97319.00
2022-08-12T22:24:26.750Z,97307.00
2022-08-12T22:29:51.892Z,97315.00
2022-08-12T22:32:19.160Z,97310.00
2022-08-12T22:35:07.989Z,97317.00
2022-08-12T22:37:35.845Z,97315.00
2022-08-12T22:40:07.132Z,97320.00
2022-08-12T22:42:53.903Z,97315.00
2022-08-12T22:45:48.357Z,97317.00
2022-08-12T22:48:26.434Z,97310.00
2022-08-12T22:50:59.096Z,97311.00
2022-08-12T22:53:36.222Z,97310.00
2022-08-12T22:56:06.993Z,97308.00
2022-08-12T22:58:40.230Z,97306.00
2022-08-12T23:01:11.039Z,97305.00
2022-08-12T23:03:49.580Z,97304.00
2022-08-12T23:06:23.894Z,97307.00
2022-08-12T23:08:52.914Z,97300.00
2022-08-12T23:11:23.838Z,97299.00
2022-08-12T23:13:56.799Z,97298.00
2022-08-12T23:16:31.896Z,97291.00
2022-08-12T23:19:10.501Z,97287.00
2022-08-12T23:22:06.192Z,97287.00
2022-08-12T23:24:56.431Z,97291.00
2022-08-12T23:27:52.205Z,97291.00
2022-08-12T23:30:31.068Z,97292.00
2022-08-12T23:33:01.316Z,97287.00
2022-08-12T23:35:46.077Z,97291.00
2022-08-12T23:38:30.256Z,97282.00
2022-08-12T23:41:01.656Z,97283.00
2022-08-12T23:43:39.921Z,97278.00
2022-08-12T23:46:09.973Z,97283.00
2022-08-12T23:48:38.104Z,97281.00
2022-08-12T23:51:22.506Z,97274.00
2022-08-12T23:54:00.187Z,97269.00
2022-08-12T23:56:32.849Z,97274.00
2022-08-12T23:59:06.554Z,97280.00
